createdAt,value
2019-03-17T00:04:44.498Z,87.90
2019-03-17T00:13:17.919Z,87.20
2019-03-17T00:15:49.585Z,87.90
2019-03-17T00:18:21.110Z,87.70
2019-03-17T00:20:52.925Z,87.90
2019-03-17T00:23:24.433Z,87.90
2019-03-17T00:25:56.053Z,88.10
2019-03-17T00:28:27.506Z,88.20
2019-03-17T00:30:59.045Z,88.20
2019-03-17T00:33:30.996Z,88.10
2019-03-17T00:36:02.725Z,88.20
2019-03-17T00:38:34.150Z,88.20
2019-03-17T00:41:05.801Z,87.40
2019-03-17T00:43:37.810Z,88.30
2019-03-17T00:46:09.260Z,88.20
2019-03-17T00:48:42.743Z,88.20
2019-03-17T00:51:13.997Z,88.30
2019-03-17T00:53:45.398Z,88.40
2019-03-17T00:56:16.897Z,88.30
2019-03-17T00:58:48.328Z,88.30
2019-03-17T01:01:19.714Z,88.30
2019-03-17T01:03:51.296Z,88.20
2019-03-17T01:36:49.861Z,88.50
2019-03-17T01:39:21.610Z,88.50
2019-03-17T01:41:53.332Z,88.60
2019-03-17T01:44:24.917Z,88.70
2019-03-17T01:46:56.190Z,88.80
2019-03-17T01:49:29.584Z,88.80
2019-03-17T01:55:11.429Z,88.90
2019-03-17T01:57:42.944Z,88.80
2019-03-17T02:00:14.230Z,88.80
2019-03-17T02:02:45.789Z,88.90
2019-03-17T02:05:22.202Z,88.80
2019-03-17T02:07:50.231Z,89.00
2019-03-17T02:10:21.929Z,89.00
2019-03-17T02:12:53.349Z,89.10
2019-03-17T02:15:24.804Z,89.00
2019-03-17T02:17:56.262Z,89.10
2019-03-17T02:20:27.688Z,89.20
2019-03-17T02:22:59.105Z,89.10
2019-03-17T02:25:30.537Z,89.10
2019-03-17T02:52:51.806Z,89.20
2019-03-17T02:55:23.643Z,89.30
2019-03-17T02:57:54.951Z,89.50
2019-03-17T03:00:26.367Z,89.70
2019-03-17T03:02:57.971Z,89.80
2019-03-17T03:33:42.786Z,89.40
2019-03-17T06:14:27.437Z,88.70
2019-03-17T06:16:59.115Z,87.80
2019-03-17T06:19:30.719Z,88.20
2019-03-17T06:22:01.926Z,88.00
2019-03-17T06:24:33.257Z,87.80
2019-03-17T06:27:05.054Z,87.60
2019-03-17T06:29:36.447Z,87.30
2019-03-17T06:32:07.904Z,87.10
2019-03-17T06:34:39.269Z,87.70
2019-03-17T06:37:10.552Z,87.40
2019-03-17T06:39:41.941Z,86.50
2019-03-17T06:42:13.333Z,86.30
2019-03-17T06:44:44.991Z,85.70
2019-03-17T06:47:17.401Z,85.60
2019-03-17T06:49:48.858Z,85.50
2019-03-17T06:52:20.158Z,85.40
2019-03-17T06:54:51.441Z,85.40
2019-03-17T06:57:22.838Z,85.00
2019-03-17T06:59:54.484Z,84.70
2019-03-17T07:02:26.008Z,84.40
2019-03-17T07:04:57.292Z,82.80
2019-03-17T07:07:28.746Z,82.40
2019-03-17T07:10:00.412Z,82.10
2019-03-17T07:12:32.619Z,81.50
2019-03-17T07:15:04.802Z,80.60
2019-03-17T07:17:36.342Z,80.00
2019-03-17T07:20:08.897Z,79.20
2019-03-17T07:22:40.665Z,78.90
2019-03-17T07:25:12.024Z,77.30
2019-03-17T07:27:45.181Z,76.40
2019-03-17T07:30:19.106Z,75.50
2019-03-17T07:32:50.418Z,74.60
2019-03-17T07:35:22.011Z,73.70
2019-03-17T07:46:58.887Z,69.50
2019-03-17T07:49:30.397Z,68.60
2019-03-17T07:52:01.850Z,67.90
2019-03-17T07:54:35.262Z,67.00
2019-03-17T07:57:06.708Z,66.20
2019-03-17T07:59:38.219Z,65.50
2019-03-17T08:02:10.811Z,64.80
2019-03-17T08:04:46.018Z,64.30
2019-03-17T08:07:15.362Z,64.00
2019-03-17T08:09:46.610Z,63.90
2019-03-17T08:12:18.345Z,63.80
2019-03-17T08:14:50.114Z,63.70
2019-03-17T08:17:21.859Z,63.70
2019-03-17T08:19:53.328Z,63.60
2019-03-17T08:22:24.618Z,63.60
2019-03-17T08:24:56.883Z,64.70
2019-03-17T08:27:28.360Z,72.20
2019-03-17T08:29:59.744Z,63.50
2019-03-17T08:32:32.662Z,63.40
2019-03-17T08:35:05.541Z,63.00
2019-03-17T08:37:36.928Z,62.80
2019-03-17T08:40:10.254Z,62.70
2019-03-17T08:42:41.851Z,62.70
2019-03-17T08:45:14.146Z,62.80
2019-03-17T08:47:57.140Z,62.70
2019-03-17T08:50:19.214Z,62.50
2019-03-17T08:52:51.089Z,61.80
2019-03-17T08:55:27.048Z,60.80
2019-03-17T08:57:59.301Z,60.50
2019-03-17T09:00:30.643Z,60.20
2019-03-17T09:03:02.169Z,60.00
2019-03-17T09:05:33.440Z,60.00
2019-03-17T09:08:04.806Z,59.80
2019-03-17T09:10:36.464Z,59.90
2019-03-17T09:13:07.939Z,59.90
2019-03-17T09:15:39.276Z,59.70
2019-03-17T09:18:11.644Z,59.80
2019-03-17T09:20:44.269Z,59.90
2019-03-17T09:23:15.929Z,60.00
2019-03-17T09:25:48.609Z,59.80
2019-03-17T09:28:19.876Z,59.80
2019-03-17T09:30:51.355Z,59.80
2019-03-17T09:33:22.741Z,58.70
2019-03-17T09:35:54.297Z,59.10
2019-03-17T09:38:25.613Z,59.20
2019-03-17T09:40:56.917Z,59.00
2019-03-17T09:45:58.784Z,58.10
2019-03-17T09:48:31.139Z,58.40
2019-03-17T09:53:33.306Z,57.30
2019-03-17T09:56:04.601Z,57.40
2019-03-17T09:58:36.597Z,56.90
2019-03-17T10:01:08.188Z,56.90
2019-03-17T10:03:41.209Z,56.90
2019-03-17T10:06:12.406Z,57.00
2019-03-17T10:08:43.816Z,57.00
2019-03-17T10:11:16.449Z,57.20
2019-03-17T10:13:47.996Z,57.40
2019-03-17T10:16:20.276Z,57.60
2019-03-17T10:18:52.944Z,57.70
2019-03-17T10:21:26.004Z,57.50
2019-03-17T10:23:57.598Z,57.40
2019-03-17T10:26:29.694Z,57.20
2019-03-17T10:29:01.364Z,56.90
2019-03-17T10:31:33.673Z,56.70
2019-03-17T12:44:43.534Z,55.50
2019-03-17T12:47:15.810Z,55.70
2019-03-17T12:49:47.017Z,55.80
2019-03-17T12:52:18.330Z,55.80
2019-03-17T12:54:50.241Z,56.20
2019-03-17T12:57:21.629Z,56.30
2019-03-17T12:59:53.450Z,56.60
2019-03-17T13:02:24.839Z,56.40
2019-03-17T13:04:56.202Z,56.90
2019-03-17T13:07:30.100Z,56.80
2019-03-17T13:10:10.668Z,57.30
2019-03-17T13:53:35.414Z,56.90
2019-03-17T13:56:07.635Z,56.80
2019-03-17T13:58:39.053Z,56.70
2019-03-17T14:01:10.582Z,56.00
2019-03-17T14:03:41.921Z,56.70
2019-03-17T14:06:13.157Z,56.90
2019-03-17T14:08:46.094Z,56.90
2019-03-17T14:11:17.571Z,57.00
2019-03-17T14:13:49.074Z,56.60
2019-03-17T14:16:21.133Z,56.90
2019-03-17T14:18:52.820Z,57.00
2019-03-17T14:21:24.626Z,56.90
2019-03-17T14:23:56.306Z,56.90
2019-03-17T14:26:28.517Z,57.20
2019-03-17T14:29:00.054Z,57.20
2019-03-17T14:31:31.753Z,57.30
2019-03-17T14:34:03.290Z,57.60
2019-03-17T14:36:35.766Z,57.50
2019-03-17T14:39:08.023Z,57.70
2019-03-17T14:41:39.355Z,57.50
2019-03-17T14:44:11.017Z,57.60
2019-03-17T14:46:42.536Z,57.60
2019-03-17T14:49:18.854Z,57.70
2019-03-17T14:51:51.512Z,57.50
2019-03-17T14:54:23.131Z,57.40
2019-03-17T14:56:54.752Z,57.60
2019-03-17T14:59:26.847Z,57.90
2019-03-17T15:01:58.326Z,58.70
2019-03-17T15:04:30.027Z,58.40
2019-03-17T15:07:01.791Z,58.30
2019-03-17T15:09:35.589Z,58.50
2019-03-17T15:12:07.212Z,58.70
2019-03-17T15:14:38.636Z,58.70
2019-03-17T15:17:10.049Z,58.90
2019-03-17T15:19:41.671Z,59.20
2019-03-17T15:22:13.256Z,59.20
2019-03-17T15:24:44.885Z,59.10
2019-03-17T15:27:17.039Z,59.10
2019-03-17T15:29:49.132Z,57.30
2019-03-17T15:32:20.504Z,59.20
2019-03-17T15:34:51.948Z,59.40
2019-03-17T15:37:24.809Z,59.40
2019-03-17T15:39:56.518Z,59.50
2019-03-17T15:42:28.007Z,59.60
2019-03-17T15:44:59.412Z,59.70
2019-03-17T15:47:31.448Z,59.80
2019-03-17T15:50:03.082Z,59.50
2019-03-17T15:52:35.422Z,59.10
2019-03-17T15:55:07.361Z,59.60
2019-03-17T15:57:38.721Z,59.80
2019-03-17T16:00:24.138Z,59.80
2019-03-17T16:02:46.674Z,60.00
2019-03-17T16:05:18.829Z,60.00
2019-03-17T16:07:52.129Z,60.00
2019-03-17T16:10:25.203Z,60.00
2019-03-17T16:12:56.803Z,60.00
2019-03-17T16:15:28.395Z,60.00
2019-03-17T16:18:01.104Z,60.00
2019-03-17T16:20:33.088Z,60.30
2019-03-17T16:23:05.062Z,60.30
2019-03-17T16:25:37.172Z,60.70
2019-03-17T16:28:08.710Z,60.70
2019-03-17T16:30:41.901Z,60.80
2019-03-17T16:33:17.314Z,61.10
2019-03-17T16:35:52.469Z,61.40
2019-03-17T16:38:24.983Z,61.70
2019-03-17T16:40:56.385Z,61.90
2019-03-17T16:43:27.794Z,62.10
2019-03-17T16:45:59.151Z,62.50
2019-03-17T16:48:30.701Z,62.70
2019-03-17T16:51:03.412Z,63.00
2019-03-17T16:53:34.824Z,63.20
2019-03-17T16:56:06.538Z,63.40
2019-03-17T16:58:38.223Z,64.50
2019-03-17T17:01:10.253Z,64.00
2019-03-17T17:03:41.544Z,64.40
2019-03-17T17:06:12.899Z,64.70
2019-03-17T17:08:44.215Z,65.00
2019-03-17T17:11:15.737Z,65.50
2019-03-17T17:13:47.205Z,65.80
2019-03-17T17:16:18.513Z,66.20
2019-03-17T17:18:50.023Z,66.30
2019-03-17T17:21:21.415Z,66.60
2019-03-17T17:23:52.673Z,67.00
2019-03-17T17:26:36.319Z,67.40
2019-03-17T17:28:57.277Z,67.70
2019-03-17T17:31:29.006Z,68.20
2019-03-17T17:34:00.549Z,68.40
2019-03-17T17:36:32.150Z,68.80
2019-03-17T17:39:04.658Z,69.20
2019-03-17T17:41:36.159Z,70.30
2019-03-17T17:44:10.086Z,69.70
2019-03-17T17:46:41.621Z,69.80
2019-03-17T17:49:13.540Z,70.20
2019-03-17T17:51:45.333Z,70.40
2019-03-17T17:54:16.990Z,70.60
2019-03-17T17:56:48.719Z,70.60
2019-03-17T17:59:20.548Z,70.90
2019-03-17T18:01:52.508Z,71.20
2019-03-17T18:04:24.765Z,71.60
2019-03-17T18:06:56.345Z,71.70
2019-03-17T18:09:27.977Z,72.70
2019-03-17T18:11:59.285Z,73.30
2019-03-17T18:14:30.774Z,73.80
2019-03-17T18:17:02.454Z,74.40
2019-03-17T18:19:34.237Z,75.50
2019-03-17T18:22:05.573Z,75.40
2019-03-17T18:24:37.549Z,75.60
2019-03-17T18:27:09.044Z,75.90
2019-03-17T18:29:40.639Z,76.50
2019-03-17T18:32:14.511Z,77.00
2019-03-17T18:34:45.924Z,77.30
2019-03-17T18:37:24.358Z,78.60
2019-03-17T18:40:03.176Z,78.50
2019-03-17T18:42:43.911Z,79.40
2019-03-17T18:45:18.474Z,79.60
2019-03-17T18:47:50.062Z,79.70
2019-03-17T18:50:21.645Z,80.00
2019-03-17T18:52:53.096Z,79.90
2019-03-17T18:55:24.449Z,80.00
2019-03-17T18:57:55.919Z,80.00
2019-03-17T19:00:27.525Z,80.20
2019-03-17T19:02:59.231Z,80.50
2019-03-17T19:05:30.705Z,80.80
2019-03-17T19:08:02.073Z,81.10
2019-03-17T19:10:33.705Z,81.40
2019-03-17T19:13:05.445Z,81.40
2019-03-17T19:15:37.144Z,82.10
2019-03-17T19:18:08.436Z,82.30
2019-03-17T19:20:40.620Z,82.60
2019-03-17T19:23:14.216Z,83.90
2019-03-17T19:25:45.770Z,83.10
2019-03-17T19:28:17.131Z,83.30
2019-03-17T19:30:48.624Z,83.40
2019-03-17T19:33:20.185Z,83.60
2019-03-17T19:35:55.034Z,83.80
2019-03-17T19:38:27.873Z,84.00
2019-03-17T19:41:03.368Z,84.00
2019-03-17T19:43:35.998Z,84.20
2019-03-17T19:46:07.425Z,84.40
2019-03-17T19:49:04.585Z,84.60
2019-03-17T19:51:38.759Z,84.70
2019-03-17T19:54:10.527Z,84.70
2019-03-17T19:56:41.909Z,84.90
2019-03-17T19:59:15.657Z,85.10
2019-03-17T20:01:47.047Z,85.20
2019-03-17T20:04:29.707Z,85.20
2019-03-17T20:06:54.352Z,85.40
2019-03-17T20:09:25.594Z,85.40
2019-03-17T20:11:57.275Z,85.90
2019-03-17T20:14:30.539Z,85.70
2019-03-17T20:17:02.146Z,85.80
2019-03-17T20:19:33.835Z,86.00
2019-03-17T20:22:05.204Z,86.20
2019-03-17T20:24:36.638Z,86.10
2019-03-17T20:27:12.147Z,86.20
2019-03-17T20:29:43.428Z,86.30
2019-03-17T20:32:14.905Z,86.50
2019-03-17T20:34:46.309Z,86.60
2019-03-17T20:37:18.410Z,86.70
2019-03-17T20:39:50.123Z,86.60
2019-03-17T20:42:21.720Z,86.70
2019-03-17T20:44:53.083Z,86.90
2019-03-17T20:47:24.663Z,86.90
2019-03-17T20:49:56.316Z,86.80
2019-03-17T20:52:27.840Z,86.90
2019-03-17T20:54:59.194Z,87.00
2019-03-17T20:57:30.600Z,87.10
2019-03-17T21:00:03.215Z,87.20
2019-03-17T21:02:37.205Z,87.90
2019-03-17T21:05:09.146Z,87.10
2019-03-17T21:07:41.165Z,87.10
2019-03-17T21:10:12.753Z,87.30
2019-03-17T21:12:44.429Z,87.30
2019-03-17T21:15:15.909Z,87.30
2019-03-17T21:17:47.389Z,87.20
2019-03-17T21:20:20.080Z,87.30
2019-03-17T21:22:51.473Z,87.40
2019-03-17T21:25:22.787Z,87.40
2019-03-17T21:27:54.149Z,87.40
2019-03-17T21:30:25.591Z,87.50
2019-03-17T21:32:57.194Z,87.50
2019-03-17T21:35:30.707Z,87.70
2019-03-17T21:38:01.991Z,87.60
2019-03-17T21:40:33.444Z,87.60
2019-03-17T21:43:05.021Z,87.70
2019-03-17T21:45:36.682Z,87.60
2019-03-17T21:48:07.965Z,87.20
2019-03-17T21:50:40.890Z,87.70
2019-03-17T21:53:12.429Z,87.70
2019-03-17T21:55:44.191Z,87.80
2019-03-17T22:07:09.098Z,87.80
2019-03-17T22:09:42.886Z,87.90
2019-03-17T22:12:14.221Z,87.90
2019-03-17T22:14:45.796Z,88.00
2019-03-17T22:17:19.050Z,88.20
2019-03-17T22:19:54.429Z,87.60
2019-03-17T22:22:25.982Z,88.20
2019-03-17T22:24:58.725Z,88.20
2019-03-17T22:27:30.618Z,88.30
2019-03-17T22:30:01.963Z,88.40
2019-03-17T22:32:33.845Z,88.20
2019-03-17T22:35:05.903Z,88.20
2019-03-17T22:37:42.521Z,88.30
2019-03-17T22:40:12.325Z,89.10
2019-03-17T22:42:44.184Z,88.30
2019-03-17T22:45:18.752Z,88.30
2019-03-17T22:47:50.330Z,88.40
2019-03-17T22:50:23.435Z,88.40
2019-03-17T22:52:55.373Z,88.50
2019-03-17T22:55:26.862Z,88.50
2019-03-17T22:58:01.131Z,88.60
2019-03-17T23:00:43.574Z,88.50
2019-03-17T23:42:21.088Z,88.30
2019-03-17T23:44:52.702Z,88.30
2019-03-17T23:47:24.514Z,88.40
2019-03-17T23:49:56.202Z,88.50
2019-03-17T23:52:27.874Z,88.70
2019-03-17T23:54:59.965Z,88.70
2019-03-17T23:57:33.556Z,88.80
